Time;durP1;ratioP1;P1;durP2;ratioP2;P2;SDS_P1;SDS_P2;PMS_P1;PMS_P2;Temp;Humidity;BMP_temperature;BMP_pressure;BME280_temperature;BME280_humidity;BME280_pressure;Samples;Min_cycle;Max_cycle;Signal;HPM_P1;HPM_P2
2020/12/22 00:01:09;;;;;;;3.72;2.30;;;10.70;99.90;;;;;;5037605;28;20220;-83
2020/12/22 00:03:35;;;;;;;2.72;2.13;;;10.70;99.90;;;;;;5036248;28;20243;-84
2020/12/22 00:06:01;;;;;;;3.63;1.70;;;10.70;99.90;;;;;;5036131;28;20188;-83
2020/12/22 00:08:27;;;;;;;4.72;2.60;;;10.80;99.90;;;;;;5035779;28;20190;-85
2020/12/22 00:10:54;;;;;;;8.57;2.03;;;10.80;99.90;;;;;;5036342;28;20679;-84
2020/12/22 00:13:20;;;;;;;10.13;2.75;;;10.90;99.90;;;;;;5035799;28;20223;-84
2020/12/22 00:15:46;;;;;;;2.60;1.67;;;10.90;99.90;;;;;;5036504;28;20192;-83
2020/12/22 00:18:14;;;;;;;3.65;1.95;;;11.00;99.90;;;;;;5035722;28;20211;-84
2020/12/22 00:20:40;;;;;;;4.18;1.40;;;11.10;99.90;;;;;;5035700;28;20239;-84
2020/12/22 00:23:06;;;;;;;2.50;1.48;;;11.10;99.90;;;;;;5035576;28;20188;-83
2020/12/22 00:25:33;;;;;;;2.53;1.50;;;11.10;99.90;;;;;;5035552;28;20212;-83
2020/12/22 00:27:59;;;;;;;2.70;1.50;;;11.20;99.90;;;;;;5035585;28;20722;-84
2020/12/22 00:30:25;;;;;;;2.92;1.50;;;11.20;99.90;;;;;;5035426;28;20656;-84
2020/12/22 00:32:51;;;;;;;2.55;1.23;;;11.20;99.90;;;;;;5035934;28;20706;-84
2020/12/22 00:35:18;;;;;;;2.33;1.35;;;11.30;99.90;;;;;;5034723;28;20185;-84
2020/12/22 00:37:45;;;;;;;2.25;1.40;;;11.20;99.90;;;;;;5035186;28;20195;-84
2020/12/22 00:40:11;;;;;;;3.03;1.60;;;11.20;99.90;;;;;;5034760;28;20266;-83
2020/12/22 00:42:37;;;;;;;3.55;1.30;;;11.30;99.90;;;;;;5034903;28;20664;-83
2020/12/22 00:45:04;;;;;;;4.70;1.30;;;11.30;99.90;;;;;;5035377;28;20216;-83
2020/12/22 00:47:30;;;;;;;3.13;1.70;;;11.30;99.90;;;;;;5034997;28;20180;-85
2020/12/22 00:49:56;;;;;;;2.25;1.20;;;11.40;99.90;;;;;;5034807;28;20192;-84
2020/12/22 00:52:23;;;;;;;4.35;1.70;;;11.40;99.90;;;;;;5034797;28;20182;-84
2020/12/22 00:54:50;;;;;;;2.22;1.30;;;11.60;99.90;;;;;;5034879;28;20526;-84
2020/12/22 00:57:16;;;;;;;2.58;1.27;;;11.60;99.90;;;;;;5035923;28;20645;-83
2020/12/22 00:59:42;;;;;;;2.92;1.30;;;11.60;99.90;;;;;;5036239;28;20189;-84
2020/12/22 01:02:09;;;;;;;2.50;1.30;;;11.70;99.90;;;;;;5036384;28;20185;-83
2020/12/22 01:04:35;;;;;;;2.20;1.10;;;11.80;99.90;;;;;;5036498;28;20191;-85
2020/12/22 01:07:02;;;;;;;2.42;1.38;;;11.80;99.90;;;;;;5034453;28;20193;-85
2020/12/22 01:09:29;;;;;;;2.20;1.30;;;11.90;99.90;;;;;;5034424;28;20201;-85
2020/12/22 01:11:56;;;;;;;2.35;1.08;;;11.90;99.90;;;;;;5034877;28;20249;-84
2020/12/22 01:14:22;;;;;;;2.20;1.20;;;12.00;99.90;;;;;;5034183;28;20221;-84
2020/12/22 01:16:48;;;;;;;3.05;1.17;;;12.00;99.90;;;;;;5034643;28;20200;-84
2020/12/22 01:19:15;;;;;;;2.33;1.23;;;12.00;99.90;;;;;;5033911;28;20220;-84
2020/12/22 01:21:41;;;;;;;2.42;1.20;;;12.00;99.90;;;;;;5033504;28;20303;-84
2020/12/22 01:24:07;;;;;;;2.00;1.02;;;12.00;99.90;;;;;;5033896;28;20180;-84
2020/12/22 01:26:34;;;;;;;4.25;1.23;;;11.90;99.90;;;;;;5033712;28;20185;-84
2020/12/22 01:29:01;;;;;;;2.20;1.10;;;11.90;99.90;;;;;;5033282;28;20184;-84
2020/12/22 01:31:28;;;;;;;1.90;1.13;;;11.90;99.90;;;;;;5034784;28;20197;-85
2020/12/22 01:33:56;;;;;;;2.20;0.98;;;11.80;99.90;;;;;;5034108;28;20225;-85
2020/12/22 01:36:23;;;;;;;2.80;1.67;;;11.80;99.90;;;;;;5034131;28;20718;-85
2020/12/22 01:38:49;;;;;;;2.05;0.98;;;11.70;99.90;;;;;;5033798;28;20550;-85
2020/12/22 01:41:17;;;;;;;2.83;1.80;;;11.80;99.90;;;;;;5034574;28;20225;-85
2020/12/22 01:44:00;;;;;;;2.10;1.13;;;11.80;99.90;;;;;;5033724;28;20527;-85
2020/12/22 01:46:31;;;;;;;2.40;1.40;;;11.80;99.90;;;;;;5034925;28;20209;-85
2020/12/22 01:48:59;;;;;;;9.18;1.92;;;11.80;99.90;;;;;;5034148;28;20190;-85
2020/12/22 01:51:26;;;;;;;2.75;1.42;;;11.90;99.90;;;;;;5033950;28;20181;-85
2020/12/22 01:53:53;;;;;;;2.30;1.20;;;11.90;99.90;;;;;;5033550;28;20249;-85
2020/12/22 01:56:20;;;;;;;4.55;1.75;;;11.90;99.90;;;;;;5034480;28;20592;-84
2020/12/22 01:58:47;;;;;;;2.10;1.10;;;11.90;99.90;;;;;;5035027;28;20549;-85
2020/12/22 02:01:13;;;;;;;2.42;1.45;;;12.00;99.90;;;;;;5035383;28;20283;-85
2020/12/22 02:03:39;;;;;;;2.30;1.27;;;12.10;99.90;;;;;;5034821;28;20188;-85
2020/12/22 02:06:06;;;;;;;2.65;1.33;;;12.10;99.90;;;;;;5034727;28;20192;-86
2020/12/22 02:08:32;;;;;;;2.67;1.15;;;12.10;99.90;;;;;;5034128;28;20690;-84
2020/12/22 02:10:59;;;;;;;2.40;1.40;;;12.20;99.90;;;;;;5033412;28;20188;-85
2020/12/22 02:13:25;;;;;;;2.38;1.10;;;12.20;99.90;;;;;;5033244;28;20275;-85
2020/12/22 02:15:52;;;;;;;2.15;1.30;;;12.20;99.90;;;;;;5033616;28;20684;-85
2020/12/22 02:18:18;;;;;;;4.68;1.38;;;12.20;99.90;;;;;;5033512;28;20185;-84
2020/12/22 02:20:45;;;;;;;3.35;1.20;;;12.20;99.90;;;;;;5019074;28;20225;-85
2020/12/22 02:23:12;;;;;;;3.30;1.17;;;12.20;99.90;;;;;;5035042;28;20181;-86
2020/12/22 02:25:46;;;;;;;4.85;1.27;;;12.30;99.90;;;;;;5033764;28;20184;-85
2020/12/22 02:28:12;;;;;;;3.08;1.88;;;12.30;99.90;;;;;;5027926;28;20556;-85
2020/12/22 02:30:38;;;;;;;2.10;1.25;;;12.40;99.90;;;;;;5034321;28;20646;-84
2020/12/22 02:33:05;;;;;;;2.60;1.45;;;12.50;99.90;;;;;;5034099;28;20195;-85
2020/12/22 02:35:31;;;;;;;2.72;1.25;;;12.60;99.90;;;;;;5033479;28;20181;-84
2020/12/22 02:37:57;;;;;;;2.30;1.30;;;12.70;99.90;;;;;;5033229;28;20186;-84
2020/12/22 02:40:24;;;;;;;4.00;1.30;;;12.70;99.90;;;;;;5033243;28;20209;-85
2020/12/22 02:42:51;;;;;;;2.10;0.90;;;12.80;99.90;;;;;;5033827;28;20196;-84
2020/12/22 02:45:17;;;;;;;2.20;1.25;;;12.80;99.90;;;;;;5030825;28;20189;-84
2020/12/22 02:47:44;;;;;;;1.88;1.00;;;12.90;99.90;;;;;;5034188;28;20194;-84
2020/12/22 02:50:10;;;;;;;2.40;1.30;;;12.90;99.90;;;;;;5035953;28;20189;-84
2020/12/22 02:52:36;;;;;;;2.95;1.13;;;13.00;99.90;;;;;;5034432;28;20204;-84
2020/12/22 02:55:03;;;;;;;2.85;0.90;;;13.10;99.90;;;;;;5039017;28;20215;-83
2020/12/22 02:57:30;;;;;;;2.70;1.30;;;13.10;99.90;;;;;;5041582;28;20185;-84
2020/12/22 02:59:56;;;;;;;2.90;1.48;;;13.10;99.90;;;;;;5052431;28;20192;-84
2020/12/22 03:02:22;;;;;;;2.47;1.30;;;13.20;99.90;;;;;;5037295;28;20202;-84
2020/12/22 03:04:48;;;;;;;2.72;1.20;;;13.20;99.90;;;;;;5037305;28;20189;-86
2020/12/22 03:07:15;;;;;;;2.50;1.10;;;13.10;99.90;;;;;;5038078;28;20625;-88
2020/12/22 03:09:41;;;;;;;2.00;1.23;;;13.20;99.90;;;;;;5038038;28;20200;-84
2020/12/22 03:12:07;;;;;;;3.65;1.45;;;13.20;99.90;;;;;;5037893;28;20203;-85
2020/12/22 03:14:34;;;;;;;3.35;1.67;;;13.30;99.90;;;;;;5024695;28;20247;-85
2020/12/22 03:17:00;;;;;;;3.08;1.20;;;13.40;99.90;;;;;;5018487;28;20212;-86
2020/12/22 03:19:27;;;;;;;3.10;1.63;;;13.40;99.90;;;;;;5030444;28;20189;-85
2020/12/22 03:21:53;;;;;;;2.10;1.00;;;13.40;99.90;;;;;;5037933;28;20576;-85
2020/12/22 03:24:19;;;;;;;3.35;1.55;;;13.40;99.90;;;;;;5037225;28;20189;-84
2020/12/22 03:26:45;;;;;;;2.38;1.50;;;13.40;99.90;;;;;;5037203;28;20193;-86
2020/12/22 03:29:12;;;;;;;2.58;1.20;;;13.40;99.90;;;;;;5036487;28;20277;-87
2020/12/22 03:31:39;;;;;;;2.30;1.20;;;13.50;99.90;;;;;;5036870;28;20201;-85
2020/12/22 03:34:08;;;;;;;2.33;1.20;;;13.50;99.90;;;;;;5036789;28;20189;-89
2020/12/22 03:36:34;;;;;;;2.25;0.90;;;13.50;99.90;;;;;;5037001;28;20264;-86
2020/12/22 03:39:00;;;;;;;1.90;0.90;;;13.50;99.90;;;;;;5036893;28;20195;-86
2020/12/22 03:41:27;;;;;;;3.88;1.58;;;13.50;99.90;;;;;;5037202;28;20615;-88
2020/12/22 03:43:54;;;;;;;4.03;1.52;;;13.50;99.90;;;;;;5036268;28;20663;-86
2020/12/22 03:46:20;;;;;;;2.33;1.25;;;13.50;99.90;;;;;;5036070;28;20189;-85
2020/12/22 03:48:47;;;;;;;2.42;1.40;;;13.50;99.90;;;;;;5036683;28;20207;-85
2020/12/22 03:51:13;;;;;;;3.17;1.10;;;13.50;99.90;;;;;;5036035;28;20185;-84
2020/12/22 03:53:40;;;;;;;2.72;1.00;;;13.50;99.90;;;;;;5035480;28;20181;-86
2020/12/22 03:56:06;;;;;;;2.30;1.45;;;13.50;99.90;;;;;;5036037;28;20187;-87
2020/12/22 03:58:32;;;;;;;2.55;1.10;;;13.50;99.90;;;;;;5036398;28;20199;-86
2020/12/22 04:00:59;;;;;;;2.65;1.15;;;13.50;99.90;;;;;;5035647;28;20212;-89
2020/12/22 04:03:25;;;;;;;2.65;1.08;;;13.50;99.90;;;;;;5035012;28;20268;-85
2020/12/22 04:05:52;;;;;;;2.70;1.23;;;13.60;99.90;;;;;;5035512;28;20234;-86
2020/12/22 04:08:19;;;;;;;2.67;1.08;;;13.60;99.90;;;;;;5035673;28;20188;-87
2020/12/22 04:10:45;;;;;;;2.28;1.10;;;13.60;99.90;;;;;;5035461;28;20656;-85
2020/12/22 04:13:12;;;;;;;2.08;1.00;;;13.60;99.90;;;;;;5035149;28;20180;-85
2020/12/22 04:15:38;;;;;;;2.22;0.93;;;13.60;99.90;;;;;;5034104;28;20651;-86
2020/12/22 04:18:04;;;;;;;3.55;1.33;;;13.60;99.90;;;;;;5035885;28;20638;-86
2020/12/22 04:20:31;;;;;;;2.95;1.52;;;13.70;99.90;;;;;;5034578;28;20209;-86
2020/12/22 04:22:58;;;;;;;2.20;1.00;;;13.70;99.90;;;;;;5015985;28;20201;-89
2020/12/22 04:25:24;;;;;;;2.28;1.02;;;13.60;99.90;;;;;;5030095;28;20188;-85
2020/12/22 04:27:50;;;;;;;2.53;1.50;;;13.80;99.90;;;;;;5035463;28;20189;-85
2020/12/22 04:30:16;;;;;;;3.00;1.45;;;13.80;99.90;;;;;;5035320;28;20191;-86
2020/12/22 04:32:43;;;;;;;3.60;1.10;;;13.90;99.90;;;;;;5035588;28;20597;-86
2020/12/22 04:35:09;;;;;;;3.47;1.00;;;13.90;99.90;;;;;;5035373;28;20228;-86
2020/12/22 04:37:37;;;;;;;2.38;1.05;;;13.90;99.90;;;;;;5035462;28;20640;-91
2020/12/22 04:40:05;;;;;;;2.47;1.05;;;13.90;99.90;;;;;;5035395;28;20286;-86
2020/12/22 04:42:34;;;;;;;2.67;1.00;;;13.90;99.90;;;;;;5035294;28;20181;-85
2020/12/22 04:45:01;;;;;;;1.98;0.90;;;13.90;99.90;;;;;;5037893;28;20660;-86
2020/12/22 04:47:32;;;;;;;1.85;0.88;;;13.90;99.90;;;;;;5043903;28;20193;-88
2020/12/22 04:50:03;;;;;;;1.92;0.70;;;13.90;99.90;;;;;;5043900;28;20212;-88
2020/12/22 04:52:31;;;;;;;3.63;1.10;;;14.10;99.90;;;;;;5044789;28;20185;-87
2020/12/22 04:54:57;;;;;;;3.25;1.08;;;13.90;99.90;;;;;;5044740;28;20268;-84
2020/12/22 04:57:31;;;;;;;2.20;1.00;;;13.90;99.90;;;;;;5043971;28;20189;-84
2020/12/22 04:59:58;;;;;;;2.00;0.90;;;13.90;99.90;;;;;;5042904;28;20185;-85
2020/12/22 05:02:27;;;;;;;3.83;0.90;;;14.00;99.90;;;;;;5040936;28;20181;-85
2020/12/22 05:04:53;;;;;;;1.90;0.90;;;13.90;99.90;;;;;;5038082;28;20192;-86
2020/12/22 05:07:20;;;;;;;1.90;1.00;;;14.00;99.90;;;;;;5038576;28;20202;-85
2020/12/22 05:09:46;;;;;;;2.00;1.08;;;13.90;99.90;;;;;;5038650;28;20183;-86
2020/12/22 05:12:12;;;;;;;2.00;0.90;;;13.90;99.90;;;;;;5042999;28;20211;-91
2020/12/22 05:14:41;;;;;;;2.20;1.00;;;13.90;99.90;;;;;;5038561;28;20235;-85
2020/12/22 05:17:12;;;;;;;2.00;0.93;;;13.90;99.90;;;;;;5035874;28;20185;-85
2020/12/22 05:19:40;;;;;;;1.90;1.10;;;13.80;99.90;;;;;;5036391;28;20188;-85
2020/12/22 05:22:06;;;;;;;6.03;1.30;;;13.80;99.90;;;;;;5035769;28;20213;-90
2020/12/22 05:24:34;;;;;;;1.80;0.90;;;13.90;99.90;;;;;;5035623;28;20189;-85
2020/12/22 05:27:01;;;;;;;3.03;1.20;;;14.00;99.90;;;;;;5039292;28;20541;-85
2020/12/22 05:29:28;;;;;;;1.80;0.90;;;13.90;99.90;;;;;;5042229;28;20196;-85
2020/12/22 05:31:55;;;;;;;1.80;0.80;;;13.90;99.90;;;;;;5038932;28;20189;-87
2020/12/22 05:34:24;;;;;;;1.90;0.80;;;13.90;99.90;;;;;;5031357;28;20192;-86
2020/12/22 05:36:50;;;;;;;6.50;1.30;;;13.90;99.90;;;;;;5030641;28;20184;-85
2020/12/22 05:39:18;;;;;;;1.95;1.00;;;13.90;99.90;;;;;;5035789;28;20196;-85
2020/12/22 05:41:45;;;;;;;1.90;0.90;;;13.90;99.90;;;;;;5036545;28;20212;-85
2020/12/22 05:44:11;;;;;;;1.90;0.80;;;13.90;99.90;;;;;;5036778;28;20183;-84
2020/12/22 05:46:40;;;;;;;2.00;0.80;;;13.90;99.90;;;;;;5036181;28;20181;-85
2020/12/22 05:49:09;;;;;;;1.80;0.90;;;13.90;99.90;;;;;;5035293;28;20196;-85
2020/12/22 05:51:35;;;;;;;1.70;0.73;;;13.80;99.90;;;;;;5033227;28;20192;-85
2020/12/22 05:54:04;;;;;;;2.42;1.10;;;13.80;99.90;;;;;;5033991;28;20607;-85
2020/12/22 05:56:31;;;;;;;2.28;1.30;;;13.80;99.90;;;;;;5032963;28;20195;-86
2020/12/22 05:58:57;;;;;;;2.35;1.02;;;13.80;99.90;;;;;;5034374;28;20181;-84
2020/12/22 06:01:31;;;;;;;2.15;0.75;;;13.80;99.90;;;;;;5033762;28;20243;-85
2020/12/22 06:03:58;;;;;;;1.95;1.20;;;13.70;99.90;;;;;;5034382;28;20181;-85
2020/12/22 06:06:27;;;;;;;2.35;1.00;;;13.60;99.90;;;;;;5032577;28;20192;-86
2020/12/22 06:08:54;;;;;;;2.20;1.10;;;13.50;99.90;;;;;;5032814;28;20193;-84
2020/12/22 06:11:20;;;;;;;2.20;1.10;;;13.40;99.90;;;;;;5033224;28;20184;-84
2020/12/22 06:13:48;;;;;;;1.80;1.00;;;13.40;99.90;;;;;;5032318;28;20216;-86
2020/12/22 06:16:19;;;;;;;1.85;0.90;;;13.40;99.90;;;;;;5033381;28;20189;-88
2020/12/22 06:18:47;;;;;;;3.80;1.17;;;13.40;99.90;;;;;;5026899;28;20671;-88
2020/12/22 06:21:16;;;;;;;2.22;1.30;;;13.60;99.90;;;;;;5024445;28;20664;-88
2020/12/22 06:23:44;;;;;;;2.25;1.38;;;13.20;99.90;;;;;;5027531;28;20181;-87
2020/12/22 06:26:12;;;;;;;2.10;0.95;;;13.30;99.90;;;;;;5015047;28;20549;-87
2020/12/22 06:28:38;;;;;;;3.03;1.15;;;13.30;99.90;;;;;;5021485;28;20181;-86
2020/12/22 06:31:16;;;;;;;3.10;1.80;;;13.20;99.90;;;;;;5036940;28;20189;-85
2020/12/22 06:33:43;;;;;;;1.80;1.10;;;13.20;99.90;;;;;;5045778;28;20184;-86
2020/12/22 06:36:13;;;;;;;2.03;1.10;;;13.30;99.90;;;;;;5043987;28;20199;-86
2020/12/22 06:38:54;;;;;;;1.90;0.80;;;13.20;99.90;;;;;;5044560;28;20196;-86
2020/12/22 06:41:26;;;;;;;2.13;1.13;;;13.20;99.90;;;;;;5041002;28;20239;-87
2020/12/22 06:43:55;;;;;;;1.98;1.05;;;13.20;99.90;;;;;;5038485;28;20199;-88
2020/12/22 06:46:38;;;;;;;2.50;1.10;;;13.20;99.90;;;;;;5048241;28;20200;-86
2020/12/22 06:49:06;;;;;;;1.95;1.05;;;13.20;99.90;;;;;;5042369;28;20644;-87
2020/12/22 06:51:33;;;;;;;2.13;1.08;;;13.20;99.90;;;;;;5043516;28;20192;-87
2020/12/22 06:54:01;;;;;;;2.10;1.10;;;13.20;99.90;;;;;;5038802;28;20237;-88
2020/12/22 06:56:41;;;;;;;2.65;1.45;;;13.30;99.90;;;;;;5037998;28;20192;-86
2020/12/22 06:59:09;;;;;;;2.20;1.20;;;13.20;99.90;;;;;;5037357;28;20185;-87
2020/12/22 07:01:37;;;;;;;1.90;1.10;;;13.20;99.90;;;;;;5038437;28;20236;-87
2020/12/22 07:04:17;;;;;;;2.22;1.30;;;13.20;99.90;;;;;;5038138;28;20185;-88
2020/12/22 07:06:52;;;;;;;2.90;2.47;;;13.20;99.90;;;;;;5038575;28;20197;-89
2020/12/22 07:09:20;;;;;;;3.00;1.13;;;13.20;99.90;;;;;;5038027;28;20188;-88
2020/12/22 07:11:47;;;;;;;3.17;0.90;;;13.20;99.90;;;;;;5020164;28;20654;-90
2020/12/22 07:14:14;;;;;;;2.15;1.15;;;13.30;99.90;;;;;;5037666;28;20240;-88
2020/12/22 07:16:50;;;;;;;2.72;1.23;;;13.30;99.90;;;;;;5036829;28;20189;-90
2020/12/22 07:19:21;;;;;;;3.47;1.58;;;13.30;99.90;;;;;;5038234;28;20188;-89
2020/12/22 07:21:48;;;;;;;2.03;0.93;;;13.30;99.90;;;;;;5036733;28;20223;-91
2020/12/22 07:24:14;;;;;;;2.15;1.23;;;13.10;99.90;;;;;;5037342;28;20242;-88
2020/12/22 07:26:41;;;;;;;2.25;1.38;;;13.20;99.90;;;;;;5037383;28;20190;-88
2020/12/22 07:29:08;;;;;;;2.75;1.13;;;13.10;99.90;;;;;;5037831;28;20213;-91
2020/12/22 07:31:34;;;;;;;2.47;1.33;;;13.40;99.90;;;;;;5037077;28;20185;-90
2020/12/22 07:34:07;;;;;;;2.88;1.35;;;13.30;99.90;;;;;;5038555;28;20189;-89
2020/12/22 07:36:34;;;;;;;2.42;1.70;;;13.30;99.90;;;;;;5018694;28;20220;-89
2020/12/22 07:39:21;;;;;;;1.75;1.00;;;13.40;99.90;;;;;;5030126;28;20185;-89
2020/12/22 07:41:50;;;;;;;2.00;1.00;;;13.50;99.90;;;;;;5018126;28;20229;-88
2020/12/22 07:44:18;;;;;;;2.40;1.30;;;13.30;99.90;;;;;;5031178;28;20192;-89
2020/12/22 07:46:47;;;;;;;3.05;1.52;;;13.40;99.90;;;;;;5037802;28;20188;-91
2020/12/22 07:49:15;;;;;;;2.20;1.10;;;13.40;99.90;;;;;;5035603;28;20246;-88
2020/12/22 07:51:42;;;;;;;2.85;1.30;;;13.40;99.90;;;;;;5037150;28;20311;-89
2020/12/22 07:54:09;;;;;;;8.13;1.67;;;13.40;99.90;;;;;;5028902;28;20193;-88
2020/12/22 07:56:37;;;;;;;2.58;1.42;;;13.40;99.90;;;;;;5038184;28;20651;-90
2020/12/22 07:59:06;;;;;;;3.45;1.45;;;13.50;99.90;;;;;;5037547;28;20185;-89
2020/12/22 08:01:39;;;;;;;2.10;1.20;;;13.50;99.90;;;;;;5036396;28;20255;-88
2020/12/22 08:04:12;;;;;;;2.70;1.20;;;13.50;99.90;;;;;;5037171;28;20235;-89
2020/12/22 08:06:42;;;;;;;1.95;1.00;;;13.50;99.90;;;;;;5036571;28;20231;-88
2020/12/22 08:09:09;;;;;;;3.05;1.50;;;13.50;99.90;;;;;;5037869;28;20188;-93
2020/12/22 08:11:35;;;;;;;2.45;1.38;;;13.50;99.90;;;;;;5037503;28;20181;-91
2020/12/22 08:14:04;;;;;;;5.57;2.40;;;13.50;99.90;;;;;;5037991;28;20255;-89
2020/12/22 08:16:33;;;;;;;1.90;0.80;;;13.50;99.90;;;;;;5038252;28;20830;-90
2020/12/22 08:19:01;;;;;;;2.20;0.90;;;13.60;99.90;;;;;;5037498;28;20242;-90
2020/12/22 08:21:28;;;;;;;3.40;1.50;;;13.60;99.90;;;;;;5038411;28;20216;-91
2020/12/22 08:23:55;;;;;;;2.03;1.10;;;13.60;99.90;;;;;;5037822;28;20272;-89
2020/12/22 08:26:22;;;;;;;1.98;1.10;;;13.50;99.90;;;;;;5041666;28;20271;-94
2020/12/22 08:28:56;;;;;;;4.13;1.27;;;13.60;99.90;;;;;;5042243;28;20242;-93
2020/12/22 08:31:28;;;;;;;2.35;1.08;;;13.50;99.90;;;;;;5027492;28;20262;-94
2020/12/22 08:33:58;;;;;;;2.50;1.25;;;13.60;99.90;;;;;;5036006;28;20189;-91
2020/12/22 08:36:28;;;;;;;2.60;0.95;;;13.60;99.90;;;;;;5040403;28;20189;-92
2020/12/22 08:39:14;;;;;;;3.75;1.33;;;13.60;99.90;;;;;;5043367;28;20280;-92
2020/12/22 08:41:41;;;;;;;2.70;1.20;;;13.70;99.90;;;;;;5043847;28;20218;-93
2020/12/22 08:44:09;;;;;;;2.55;1.42;;;13.60;99.90;;;;;;5039883;28;20184;-91
2020/12/22 08:46:37;;;;;;;4.30;1.52;;;13.60;99.90;;;;;;5037329;28;20211;-91
2020/12/22 08:49:08;;;;;;;2.60;1.30;;;13.40;99.90;;;;;;5037369;28;20196;-92
2020/12/22 08:51:35;;;;;;;3.28;1.10;;;13.40;99.90;;;;;;5037325;28;20327;-91
2020/12/22 08:54:02;;;;;;;3.03;1.38;;;13.30;99.90;;;;;;5035489;28;20192;-92
2020/12/22 08:56:29;;;;;;;3.03;1.33;;;13.20;99.90;;;;;;5043547;28;20184;-89
2020/12/22 08:58:58;;;;;;;6.53;1.58;;;13.30;99.90;;;;;;5035907;28;20184;-93
2020/12/22 09:01:26;;;;;;;2.10;1.10;;;13.40;99.90;;;;;;5042151;28;20236;-92
2020/12/22 09:03:58;;;;;;;3.38;1.50;;;13.40;99.90;;;;;;5030370;28;20702;-90
2020/12/22 09:06:36;;;;;;;2.60;1.38;;;13.40;99.90;;;;;;5042801;28;20192;-93
2020/12/22 09:09:08;;;;;;;3.67;1.23;;;13.60;99.90;;;;;;5039784;28;20190;-94
2020/12/22 09:11:36;;;;;;;3.17;1.70;;;13.40;99.90;;;;;;5040967;28;20211;-89
2020/12/22 09:14:09;;;;;;;3.85;1.38;;;13.40;99.90;;;;;;5051471;28;20224;-92
2020/12/22 09:17:00;;;;;;;5.85;2.05;;;13.30;99.90;;;;;;5042401;28;20685;-89
2020/12/22 09:19:40;;;;;;;2.70;1.40;;;13.40;99.90;;;;;;5035244;28;20200;-90
2020/12/22 09:22:07;;;;;;;2.67;1.13;;;13.40;99.90;;;;;;5034407;28;20215;-91
2020/12/22 09:24:34;;;;;;;2.35;1.35;;;13.40;99.90;;;;;;5026849;28;20188;-88
2020/12/22 09:27:02;;;;;;;2.60;1.77;;;13.50;99.90;;;;;;5044241;28;20544;-88
2020/12/22 09:29:31;;;;;;;2.47;1.45;;;13.40;99.90;;;;;;5035280;28;20632;-88
2020/12/22 09:31:59;;;;;;;3.55;1.58;;;13.60;99.90;;;;;;5035968;28;20234;-90
2020/12/22 09:34:30;;;;;;;3.08;1.83;;;13.60;99.90;;;;;;5032221;28;20197;-87
2020/12/22 09:36:58;;;;;;;3.45;1.30;;;13.60;99.90;;;;;;5034826;28;20192;-88
2020/12/22 09:39:26;;;;;;;3.25;1.50;;;13.60;99.90;;;;;;5041138;28;20199;-89
2020/12/22 09:41:53;;;;;;;2.00;1.38;;;13.60;99.90;;;;;;5036671;28;20221;-88
2020/12/22 09:44:19;;;;;;;2.28;1.30;;;13.70;99.90;;;;;;5035410;28;20767;-90
2020/12/22 09:46:47;;;;;;;2.22;1.10;;;13.80;99.90;;;;;;5031568;28;20195;-91
2020/12/22 09:49:15;;;;;;;4.13;1.30;;;13.80;99.90;;;;;;5036745;28;20193;-90
2020/12/22 09:51:44;;;;;;;3.17;1.65;;;13.80;99.90;;;;;;5037944;28;20215;-91
2020/12/22 09:54:11;;;;;;;2.42;1.55;;;13.70;99.90;;;;;;5037305;28;20552;-87
2020/12/22 09:56:38;;;;;;;5.95;2.22;;;13.60;99.90;;;;;;5035283;28;20189;-89
2020/12/22 09:59:05;;;;;;;4.90;1.88;;;13.50;99.90;;;;;;5035122;28;20226;-87
2020/12/22 10:01:31;;;;;;;9.63;2.28;;;13.40;99.90;;;;;;5035051;28;20208;-90
2020/12/22 10:03:59;;;;;;;4.25;1.77;;;13.50;99.90;;;;;;5036196;28;20181;-88
2020/12/22 10:06:27;;;;;;;9.98;1.70;;;13.40;99.90;;;;;;5036619;28;20208;-89
2020/12/22 10:08:55;;;;;;;5.38;1.98;;;13.50;99.90;;;;;;5035793;28;20315;-89
2020/12/22 10:11:25;;;;;;;2.65;1.42;;;13.60;99.90;;;;;;5036244;28;20184;-88
2020/12/22 10:13:52;;;;;;;2.90;2.03;;;13.70;99.90;;;;;;5034083;28;20224;-89
2020/12/22 10:16:21;;;;;;;3.53;2.20;;;13.70;99.90;;;;;;5037141;28;20185;-89
2020/12/22 10:18:47;;;;;;;2.95;1.60;;;13.80;99.90;;;;;;5038500;28;20218;-91
2020/12/22 10:21:19;;;;;;;3.33;2.47;;;13.80;99.90;;;;;;5037592;28;20212;-92
2020/12/22 10:23:46;;;;;;;2.33;1.33;;;13.80;99.90;;;;;;5041291;28;20283;-90
2020/12/22 10:26:15;;;;;;;3.03;1.88;;;13.80;99.90;;;;;;5038288;28;20180;-90
2020/12/22 10:28:44;;;;;;;2.85;1.70;;;13.80;99.90;;;;;;5043995;28;20279;-91
2020/12/22 10:31:15;;;;;;;2.90;1.90;;;13.70;99.90;;;;;;5035530;28;20187;-92
2020/12/22 10:33:42;;;;;;;2.45;1.70;;;13.70;99.90;;;;;;5044203;28;20196;-90
2020/12/22 10:36:11;;;;;;;5.53;2.40;;;13.50;99.90;;;;;;5049102;28;20205;-90
2020/12/22 10:38:38;;;;;;;4.97;1.98;;;13.40;99.90;;;;;;5047638;28;20202;-92
2020/12/22 10:41:04;;;;;;;3.30;2.28;;;13.20;99.90;;;;;;5042859;28;20251;-92
2020/12/22 10:43:32;;;;;;;3.03;2.38;;;13.10;99.90;;;;;;5040032;28;20280;-93
2020/12/22 10:46:09;;;;;;;3.33;2.40;;;13.10;99.90;;;;;;5042327;28;20189;-93
2020/12/22 10:48:35;;;;;;;2.58;1.95;;;13.00;99.90;;;;;;5040734;28;20181;-93
2020/12/22 10:51:02;;;;;;;3.03;2.10;;;13.10;99.90;;;;;;5041229;28;20184;-93
2020/12/22 10:53:28;;;;;;;3.22;2.22;;;13.00;99.90;;;;;;5041350;28;20184;-91
2020/12/22 10:55:55;;;;;;;5.03;1.90;;;13.10;99.90;;;;;;5042392;28;20204;-93
2020/12/22 10:58:22;;;;;;;3.40;1.90;;;13.00;99.90;;;;;;5038491;28;20540;-91
2020/12/22 11:01:06;;;;;;;4.22;2.10;;;13.10;99.90;;;;;;5041467;28;20215;-96
2020/12/22 11:03:41;;;;;;;4.00;2.05;;;13.10;99.90;;;;;;5040887;28;20253;-93
2020/12/22 11:06:28;;;;;;;3.25;2.40;;;13.20;99.90;;;;;;5033797;28;20200;-91
2020/12/22 11:08:55;;;;;;;4.60;2.05;;;13.30;99.90;;;;;;5029459;28;20192;-88
2020/12/22 11:11:24;;;;;;;3.83;2.42;;;13.30;99.90;;;;;;5041032;28;20189;-91
2020/12/22 11:13:50;;;;;;;3.80;2.20;;;13.30;99.90;;;;;;5039747;28;20748;-94
2020/12/22 11:16:30;;;;;;;2.25;1.58;;;13.20;99.90;;;;;;5039954;28;20189;-91
2020/12/22 11:18:56;;;;;;;4.38;2.83;;;13.20;99.90;;;;;;5039385;28;20259;-90
2020/12/22 11:21:33;;;;;;;4.05;2.63;;;13.20;99.90;;;;;;5041841;28;20216;-92
2020/12/22 11:26:42;;;;;;;3.28;1.95;;;13.50;99.90;;;;;;5042886;28;20223;-91
2020/12/22 11:29:08;;;;;;;3.90;1.90;;;13.60;99.90;;;;;;5044525;28;20192;-93
2020/12/22 11:31:36;;;;;;;4.20;2.00;;;13.60;99.90;;;;;;5043819;28;20280;-90
2020/12/22 11:34:03;;;;;;;3.00;1.65;;;13.60;99.90;;;;;;5043928;28;20265;-90
2020/12/22 11:36:29;;;;;;;5.13;2.08;;;13.60;99.90;;;;;;5042769;28;20268;-92
2020/12/22 11:38:57;;;;;;;2.47;1.65;;;13.70;99.90;;;;;;5044292;28;20184;-92
2020/12/22 11:41:25;;;;;;;5.25;2.40;;;13.50;99.90;;;;;;5041674;28;20219;-91
2020/12/22 11:43:52;;;;;;;2.55;1.67;;;13.50;99.90;;;;;;5040442;28;20195;-92
2020/12/22 11:46:20;;;;;;;4.10;2.00;;;13.50;99.90;;;;;;5042893;28;20238;-90
2020/12/22 11:48:53;;;;;;;5.05;2.20;;;13.60;99.90;;;;;;5041902;28;20195;-92
2020/12/22 11:51:20;;;;;;;3.17;1.98;;;13.40;99.90;;;;;;5041731;28;20207;-94
2020/12/22 11:53:47;;;;;;;3.22;1.77;;;13.50;99.90;;;;;;5042783;28;20188;-93
2020/12/22 11:56:15;;;;;;;3.22;1.80;;;13.40;99.90;;;;;;5041553;28;20201;-92
2020/12/22 11:58:42;;;;;;;2.50;1.23;;;13.50;99.90;;;;;;5043611;28;20268;-93
2020/12/22 12:01:08;;;;;;;3.92;1.80;;;13.50;99.90;;;;;;5046057;28;20576;-92
2020/12/22 12:03:36;;;;;;;2.80;1.85;;;13.50;99.90;;;;;;5056595;28;20235;-90
2020/12/22 12:06:04;;;;;;;3.65;1.40;;;13.50;99.90;;;;;;5046321;28;20204;-87
2020/12/22 12:08:30;;;;;;;3.33;1.65;;;13.40;99.90;;;;;;5046847;28;20251;-87
2020/12/22 12:10:57;;;;;;;2.35;1.40;;;13.40;99.90;;;;;;5035796;28;20280;-91
2020/12/22 12:13:24;;;;;;;2.35;1.27;;;13.50;99.90;;;;;;5042263;28;20229;-92
2020/12/22 12:15:50;;;;;;;3.47;2.28;;;13.50;99.90;;;;;;5026527;28;20193;-94
2020/12/22 12:18:16;;;;;;;3.22;1.20;;;13.50;99.90;;;;;;5048826;28;20201;-92
2020/12/22 12:20:43;;;;;;;1.92;1.10;;;13.40;99.90;;;;;;5055829;28;20220;-91
2020/12/22 12:23:11;;;;;;;2.58;1.25;;;13.50;99.90;;;;;;5052183;28;20212;-90
2020/12/22 12:25:37;;;;;;;3.30;1.35;;;13.40;99.90;;;;;;5040495;28;20261;-94
2020/12/22 12:28:04;;;;;;;2.72;1.20;;;13.50;99.90;;;;;;5056249;28;20192;-91
2020/12/22 12:30:30;;;;;;;2.90;1.02;;;13.50;99.90;;;;;;5056768;28;20192;-91
2020/12/22 12:32:57;;;;;;;2.60;1.30;;;13.50;99.90;;;;;;5058121;28;20223;-92
2020/12/22 12:35:23;;;;;;;4.55;1.63;;;13.40;99.90;;;;;;5054726;28;20196;-90
2020/12/22 12:37:52;;;;;;;2.00;1.00;;;13.40;99.90;;;;;;5037173;28;20267;-93
2020/12/22 12:40:20;;;;;;;2.13;1.08;;;13.40;99.90;;;;;;5025165;28;20208;-89
2020/12/22 12:42:46;;;;;;;1.98;1.05;;;13.50;99.90;;;;;;5037598;28;20214;-91
2020/12/22 12:45:18;;;;;;;2.90;1.13;;;13.50;99.90;;;;;;5050175;28;20205;-91
2020/12/22 12:47:45;;;;;;;3.97;1.20;;;13.30;99.90;;;;;;5046578;28;20193;-90
2020/12/22 12:50:11;;;;;;;5.13;1.10;;;13.30;99.90;;;;;;5044189;28;20193;-91
2020/12/22 12:52:37;;;;;;;2.20;1.15;;;13.40;99.90;;;;;;5044435;28;20181;-91
2020/12/22 12:55:04;;;;;;;2.60;1.20;;;13.40;99.90;;;;;;5044888;28;20189;-89